X  Tanca Dades meteorològiques de l'aviació METAR     EHRD Rotterdam The Hague Airport
Temperatura
10°C Temperatura
7°C Rosada
82% Humitat



Vent
32 KM/H
20 MPH
9 M/S
17 NUS



240°
OSO
Condicions actuals

Força ennuvolat Força ennuvolat
Pressió 1022.01 (hPa) - 30.18 (inHg)
Visibilitat 6 (milla) - 9.7 (km)
Aeroport
Codi aeroport EHRD

Ubicació: Rotterdam The Hague Airport
Distància: 11 (km)

Metar:
EHRD 202225Z AUTO 24017KT 210V280 9999 BKN012/// BKN014/// 10/07 Q1022 BECMG BKN017

Temps: 20-02-2024 23:25 CET